Nearby METAR Reports

 

LFLC - Clermont/Aulnat, France
Distance from station: S 1mi, 2km
Updated: Wed, 28-Oct-2020 1:00am CET
Mostly Cloudy
Mostly Cloudy
 Wind from S
Wind: S 9 mph , 15 km/h
Temperature: 55°F , 13°C
Dew Point: 45°F , 7°C
Humidity: 67%
Barometer: 29.91 inHg , 1013 hPa
Clouds: Mostly Cloudy
Visibility: 6 miles , 10 km
Cloud details: Mostly Cloudy 6600 ft
Mostly Cloudy 8800 ft
Mostly Cloudy 13000 ft
2020/10/28 00:00 LFLC 280000Z AUTO 17008KT 9999 BKN066 BKN088 BKN130 13/07 Q1013 NOSIG
LFMH - St Etienne/Bouth, France
Distance from station: ESE 57mi, 92km
Updated: Wed, 28-Oct-2020 1:00am CET
Clear
Clear
 Wind from S
Wind: S 9 mph , 15 km/h
Temperature: 54°F , 12°C
Dew Point: 45°F , 7°C
Humidity: 72%
Barometer: 29.94 inHg , 1014 hPa
Summary: Clear
Visibility: greater than 7 miles , 10 km
2020/10/28 00:00 LFMH 280000Z AUTO 19008KT CAVOK 12/07 Q1014
 
LFLN - Saint Yan, France
Distance from station: NE 60mi, 96km
Updated: Wed, 28-Oct-2020 1:00am CET
Overcast
Overcast
 Wind from varies
Wind: varies 3 mph , 6 km/h
Temperature: 54°F , 12°C
Dew Point: 48°F , 9°C
Humidity: 82%
Barometer: 29.88 inHg , 1012 hPa
Clouds: Overcast
Visibility: 6 miles , 10 km
Cloud details: Overcast 4000 ft
2020/10/28 00:00 LFLN 280000Z AUTO VRB03KT 9999 OVC040 12/09 Q1012
LFLW - Aurillac (aut), France
Distance from station: SSW 72mi, 116km
Updated: Tue, 27-Oct-2020 10:30pm CET
NOT Current
Light rain, Drizzle, Overcast
Light rain, Drizzle, Overcast
 Wind from S
Wind: S 3 mph , 6 km/h
Temperature: 48°F , 9°C
Dew Point: 46°F , 8°C
Humidity: 94%
Barometer: 30 inHg , 1016 hPa
Summary: Light rain, Drizzle
Clouds: Overcast
Visibility: 6 miles , 10 km
Cloud details: Overcast 900 ft
2020/10/27 21:30 LFLW 272130Z AUTO 17003KT 120V240 9999 -RADZ OVC009 09/08 Q1016
 
LFQG - Nevers/Fourchamb, France
Distance from station: N 84mi, 135km
Updated: Tue, 27-Oct-2020 7:00pm CET
NOT Current
Light drizzle, Mostly cloudy
Light drizzle, Mostly cloudy
 Wind from SSE
Wind: SSE 9 mph , 15 km/h
Temperature: 52°F , 11°C
Dew Point: 50°F , 10°C
Humidity: 94%
Barometer: 29.83 inHg , 1010 hPa
Summary: Light Drizzle
Clouds: Mostly Cloudy
Visibility: 6 miles , 10 km
Cloud details: Mostly Cloudy 800 ft
Mostly Cloudy 1400 ft
Mostly Cloudy 1900 ft
2020/10/27 18:00 LFQG 271800Z AUTO 15008KT 120V180 9999 -DZ BKN008 BKN014 BKN019 11/10 Q1010
LFLY - Lyon/Bron, France
Distance from station: E 86mi, 138km
Updated: Wed, 28-Oct-2020 1:00am CET
Light rain, Overcast
Light rain, Overcast
 Wind from S
Wind: S 9 mph , 15 km/h
Temperature: 52°F , 11°C
Dew Point: 45°F , 7°C
Humidity: 77%
Barometer: 29.94 inHg , 1014 hPa
Summary: Light Rain
Clouds: Overcast
Visibility: 6 miles , 10 km
Cloud details: Overcast 5200 ft
2020/10/28 00:00 LFLY 280000Z AUTO 17008KT 9999 -RA OVC052 11/07 Q1014 NOSIG
 
LFOA - Avord (fafb), France
Distance from station: NNW 90mi, 145km
Updated: Wed, 28-Oct-2020 1:00am CET
Light drizzle, Overcast
Light drizzle, Overcast
 Wind from SW
Wind: SW 17 mph , 28 km/h
Temperature: 55°F , 13°C
Dew Point: 52°F , 11°C
Humidity: 88%
Barometer: 29.83 inHg , 1010 hPa
Summary: Light Drizzle
Clouds: Overcast
Visibility: 4 miles , 7 km
Cloud details: Overcast 1400 ft
2020/10/28 00:00 LFOA 280000Z AUTO 22015KT 7000 -DZ OVC014 13/11 Q1010
LFLL - Lyon/Satolas, France
Distance from station: E 92mi, 147km
Updated: Wed, 28-Oct-2020 12:30am CET
Rain showers, Mostly cloudy
Rain showers, Mostly cloudy
 Wind from SSE
Wind: SSE 7 mph , 11 km/h
Temperature: 52°F , 11°C
Dew Point: 45°F , 7°C
Humidity: 77%
Barometer: 29.97 inHg , 1015 hPa
Summary: Rain Showers
Clouds: Mostly Cloudy
Visibility: 6 miles , 10 km
Cloud details: Few Clouds 4300 ft
Mostly Cloudy 4600 ft
2020/10/27 23:30 LFLL 272330Z 16006KT 9999 SHRA FEW043TCU BKN046 11/07 Q1015 NOSIG
 
LFBL - Limoges/Bellegar, France
Distance from station: W 97mi, 155km
Updated: Wed, 28-Oct-2020 1:00am CET
Heavy drizzle, Mist, Overcast
Heavy drizzle, Mist, Overcast
 Wind from S
Wind: S 14 mph , 22 km/h
Temperature: 52°F , 11°C
Dew Point: 52°F , 11°C
Humidity: 100%
Barometer: 29.91 inHg , 1013 hPa
Summary: Heavy drizzle, Mist
Clouds: Overcast
Visibility: 2 miles , 3 km
Cloud details: Overcast 200 ft
2020/10/28 00:00 LFBL 280000Z AUTO 19012KT 2700 +DZ BR OVC002 11/11 Q1013 BECMG 9999 NSW
LFSL - Brive/Souillac, France
Distance from station: WSW 97mi, 156km
Updated: Wed, 28-Oct-2020 1:00am CET
Overcast
Overcast
 Wind from S
Wind: S 8 mph , 13 km/h
Temperature: 52°F , 11°C
Dew Point: 52°F , 11°C
Humidity: 100%
Barometer: 29.97 inHg , 1015 hPa
Clouds: Overcast
Visibility: 4 miles , 7 km
Cloud details: Overcast 300 ft
2020/10/28 00:00 LFSL 280000Z AUTO 18007KT 150V220 7000 OVC003 11/11 Q1015
 
LFLX - Chateauroux/Deol, France
Distance from station: NW 101mi, 163km
Updated: Wed, 28-Oct-2020 1:00am CET
Overcast
Overcast
 Wind from SW
Wind: SW 18 mph , 30 km/h
Temperature: 55°F , 13°C
Dew Point: 54°F , 12°C
Humidity: 94%
Barometer: 29.83 inHg , 1010 hPa
Clouds: Overcast
Visibility: 6 miles , 10 km
Cloud details: Mostly Cloudy 900 ft
Overcast 1300 ft
2020/10/28 00:00 LFLX 280000Z AUTO 22016KT 9999 BKN009 OVC013 13/12 Q1010 NOSIG
LFCR - Rodez/Marcillac, France
Distance from station: SSW 103mi, 165km
Updated: Wed, 28-Oct-2020 1:00am CET
Overcast
Overcast
 Wind from S
Wind: S 5 mph , 7 km/h
Temperature: 48°F , 9°C
Wind Chill: 46°F , 8°C
Dew Point: 48°F , 9°C
Humidity: 100%
Barometer: 30 inHg , 1016 hPa
Clouds: Overcast
Visibility: 4 miles , 7 km
Cloud details: Overcast 700 ft
2020/10/28 00:00 LFCR 280000Z AUTO 17004KT 7000 OVC007 09/09 Q1016 TEMPO 3000 RADZ
 
LFLU - Valence-Chabeuil, France
Distance from station: ESE 107mi, 172km
Updated: Tue, 27-Oct-2020 7:00pm CET
NOT Current
Overcast
Overcast
 Wind from SE
Wind: SE 6 mph , 9 km/h
Temperature: 52°F , 11°C
Dew Point: 45°F , 7°C
Humidity: 77%
Barometer: 29.94 inHg , 1014 hPa
Clouds: Overcast
Visibility: 6 miles , 10 km
Cloud details: Mostly Cloudy 7400 ft
Overcast 12000 ft
2020/10/27 18:00 LFLU 271800Z AUTO 14005KT 9999 BKN074 OVC120 11/07 Q1014
LFLS - Grenoble/St. Geo, France
Distance from station: ESE 108mi, 174km
Updated: Wed, 28-Oct-2020 1:00am CET
Light rain, Overcast
Light rain, Overcast
 Wind from ENE
Wind: ENE 8 mph , 13 km/h
Temperature: 48°F , 9°C
Wind Chill: 44°F , 7°C
Dew Point: 43°F , 6°C
Humidity: 82%
Barometer: 29.97 inHg , 1015 hPa
Summary: Light Rain
Clouds: Overcast
Visibility: 6 miles , 10 km
Cloud details: Few Clouds 4600 ft
Partly Cloudy 5800 ft
Overcast 8600 ft
2020/10/28 00:00 LFLS 280000Z AUTO 07007KT 9999 -RA FEW046 SCT058 OVC086 09/06 Q1015
 
LFYR - Romorantin/Pruni, France
Distance from station: NW 128mi, 205km
Updated: Wed, 28-Oct-2020 1:00am CET
Mostly Cloudy
Mostly Cloudy
 Wind from SW
Wind: SW 9 mph , 15 km/h
Temperature: 55°F , 13°C
Dew Point: 54°F , 12°C
Humidity: 94%
Barometer: 29.8 inHg , 1009 hPa
Clouds: Mostly Cloudy
Visibility: 6 miles , 10 km
Cloud details: Mostly Cloudy 900 ft
Mostly Cloudy 1500 ft
Mostly Cloudy 2500 ft
2020/10/28 00:00 LFYR 280000Z AUTO 22008KT 180V260 9999 BKN009 BKN015 BKN025 13/12 Q1009
LFLB - Chambery/Aix Bai, France
Distance from station: E 131mi, 210km
Updated: Wed, 28-Oct-2020 1:00am CET
Clear
Clear
 Wind from SSW
Wind: SSW 13 mph , 20 km/h
Temperature: 52°F , 11°C
Dew Point: 41°F , 5°C
Humidity: 67%
Barometer: 30 inHg , 1016 hPa
Summary: Clear
Visibility: greater than 7 miles , 10 km
2020/10/28 00:00 LFLB 280000Z AUTO 20011KT CAVOK 11/05 Q1016
 
LFSD - Dijon/Longvic(Fa, France
Distance from station: NE 136mi, 219km
Updated: Wed, 28-Oct-2020 1:00am CET
Light rain, Mostly cloudy
Light rain, Mostly cloudy
 Wind from S
Wind: S 13 mph , 20 km/h
Temperature: 50°F , 10°C
Wind Chill: 45°F , 7°C
Dew Point: 48°F , 9°C
Humidity: 94%
Barometer: 29.88 inHg , 1012 hPa
Summary: Light Rain
Clouds: Mostly Cloudy
Visibility: 6 miles , 10 km
Cloud details: Few Clouds 3000 ft
Partly Cloudy 4600 ft
Mostly Cloudy 5800 ft
2020/10/28 00:00 LFSD 280000Z AUTO 19011KT 9999 -RA FEW030 SCT046 BKN058 10/09 Q1012
LFGJ - Dole Tavaux, France
Distance from station: NE 139mi, 223km
Updated: Wed, 28-Oct-2020 1:00am CET
Overcast
Overcast
 Wind from S
Wind: S 15 mph , 24 km/h
Temperature: 54°F , 12°C
Dew Point: 43°F , 6°C
Humidity: 67%
Barometer: 29.88 inHg , 1012 hPa
Clouds: Overcast
Visibility: 6 miles , 10 km
Cloud details: Overcast 3600 ft
2020/10/28 00:00 LFGJ 280000Z AUTO 19013KT 9999 OVC036 12/06 Q1012
 
LFLP - Annecy/Meythet, France
Distance from station: E 141mi, 226km
Updated: Wed, 28-Oct-2020 1:00am CET
Clear
Clear
 Wind from varies
Wind: varies 3 mph , 6 km/h
Temperature: 45°F , 7°C
Dew Point: 43°F , 6°C
Humidity: 93%
Barometer: 29.97 inHg , 1015 hPa
Summary: Clear
Visibility: greater than 7 miles , 10 km
2020/10/28 00:00 LFLP 280000Z AUTO VRB03KT CAVOK 07/06 Q1015
LFBU - Brie Champniers, France
Distance from station: W 142mi, 229km
Updated: Wed, 28-Oct-2020 1:00am CET
Rain, Mist, Overcast
Rain, Mist, Overcast
 Wind from SW
Wind: SW 9 mph , 15 km/h
Temperature: 55°F , 13°C
Dew Point: 55°F , 13°C
Humidity: 100%
Barometer: 29.91 inHg , 1013 hPa
Summary: Rain, Mist
Clouds: Overcast
Visibility: 3 miles , 4 km
Cloud details: Partly Cloudy 500 ft
Mostly Cloudy 1100 ft
Overcast 1600 ft
2020/10/28 00:00 LFBU 280000Z AUTO 22008KT 190V250 4100 RA BR SCT005 BKN011 OVC016 13/13 Q1013

Metar display script from Saratoga-Weather.org